createdAt,value
2022-11-24T00:01:22.845Z,8.70
2022-11-24T00:03:56.081Z,9.18
2022-11-24T00:06:23.674Z,8.43
2022-11-24T00:08:51.563Z,9.50
2022-11-24T00:11:24.717Z,10.43
2022-11-24T00:13:52.134Z,9.18
2022-11-24T00:16:22.435Z,9.85
2022-11-24T00:18:51.249Z,8.85
2022-11-24T00:21:19.880Z,10.02
2022-11-24T00:23:47.361Z,9.50
2022-11-24T00:26:37.473Z,9.68
2022-11-24T00:29:07.793Z,9.45
2022-11-24T00:31:37.910Z,9.55
2022-11-24T00:34:07.970Z,8.50
2022-11-24T00:36:36.363Z,8.90
2022-11-24T00:39:06.826Z,8.52
2022-11-24T00:41:34.303Z,7.65
2022-11-24T00:44:01.708Z,8.27
2022-11-24T00:46:28.993Z,7.85
2022-11-24T00:48:56.890Z,7.38
2022-11-24T00:51:27.274Z,7.43
2022-11-24T00:53:55.635Z,7.47
2022-11-24T00:56:22.941Z,8.13
2022-11-24T00:58:50.740Z,7.72
2022-11-24T01:01:20.572Z,7.53
2022-11-24T01:03:48.112Z,6.60
2022-11-24T01:06:22.418Z,7.30
2022-11-24T01:08:50.063Z,7.45
2022-11-24T01:11:18.453Z,7.18
2022-11-24T01:13:48.123Z,7.63
2022-11-24T01:16:28.194Z,8.02
2022-11-24T01:18:55.875Z,7.07
2022-11-24T01:21:23.682Z,6.72
2022-11-24T01:23:51.438Z,6.80
2022-11-24T01:26:20.983Z,6.97
2022-11-24T01:28:48.165Z,7.45
2022-11-24T01:31:16.830Z,7.75
2022-11-24T01:33:43.891Z,6.78
2022-11-24T01:36:10.986Z,7.45
2022-11-24T01:38:38.409Z,7.45
2022-11-24T01:41:15.760Z,6.57
2022-11-24T01:43:44.439Z,7.15
2022-11-24T01:46:17.273Z,6.55
2022-11-24T01:48:50.860Z,6.32
2022-11-24T01:51:21.554Z,6.13
2022-11-24T01:54:00.946Z,6.18
2022-11-24T01:56:30.160Z,5.55
2022-11-24T02:01:33.535Z,6.40
2022-11-24T02:04:04.164Z,6.47
2022-11-24T02:06:33.473Z,5.95
2022-11-24T02:09:16.809Z,6.43
2022-11-24T02:11:44.960Z,5.80
2022-11-24T02:14:14.199Z,5.78
2022-11-24T02:16:44.401Z,6.28
2022-11-24T02:19:37.682Z,6.50
2022-11-24T02:22:05.103Z,6.05
2022-11-24T02:24:46.300Z,6.70
2022-11-24T02:27:13.792Z,6.07
2022-11-24T02:29:42.049Z,6.55
2022-11-24T02:32:11.511Z,6.03
2022-11-24T02:34:38.859Z,6.35
2022-11-24T02:37:06.307Z,6.32
2022-11-24T02:39:33.422Z,5.85
2022-11-24T02:42:08.263Z,5.70
2022-11-24T02:44:42.221Z,6.05
2022-11-24T02:47:11.546Z,6.28
2022-11-24T02:49:38.894Z,6.28
2022-11-24T02:52:06.585Z,6.40
2022-11-24T02:54:34.239Z,6.03
2022-11-24T02:57:01.985Z,5.47
2022-11-24T02:59:29.297Z,5.88
2022-11-24T03:01:56.319Z,6.00
2022-11-24T03:04:23.676Z,6.85
2022-11-24T03:06:50.669Z,5.63
2022-11-24T03:09:17.994Z,5.93
2022-11-24T03:11:45.370Z,6.22
2022-11-24T03:14:12.722Z,6.38
2022-11-24T03:16:39.782Z,6.03
2022-11-24T03:19:06.794Z,6.63
2022-11-24T03:21:33.796Z,7.10
2022-11-24T03:24:00.778Z,6.22
2022-11-24T03:26:28.080Z,6.93
2022-11-24T03:28:57.420Z,6.88
2022-11-24T03:31:24.782Z,6.22
2022-11-24T03:33:51.851Z,5.88
2022-11-24T03:36:19.609Z,6.00
2022-11-24T03:38:47.019Z,6.65
2022-11-24T03:41:14.124Z,6.80
2022-11-24T03:43:44.005Z,6.78
2022-11-24T03:46:11.570Z,6.72
2022-11-24T03:48:39.104Z,6.47
2022-11-24T03:51:06.477Z,6.75
2022-11-24T03:53:33.871Z,6.47
2022-11-24T03:56:02.697Z,6.93
2022-11-24T03:58:30.202Z,6.13
2022-11-24T04:00:58.023Z,6.28
2022-11-24T04:03:25.498Z,6.55
2022-11-24T04:05:52.818Z,6.88
2022-11-24T04:08:20.283Z,6.10
2022-11-24T04:10:51.587Z,7.22
2022-11-24T04:13:20.783Z,6.68
2022-11-24T04:15:48.598Z,6.85
2022-11-24T04:18:16.008Z,6.70
2022-11-24T04:20:43.769Z,6.68
2022-11-24T04:23:11.640Z,6.68
2022-11-24T04:25:39.061Z,5.80
2022-11-24T04:28:06.098Z,6.97
2022-11-24T04:30:34.238Z,6.70
2022-11-24T04:33:01.309Z,6.70
2022-11-24T04:35:28.951Z,6.70
2022-11-24T04:37:56.396Z,7.32
2022-11-24T04:40:23.749Z,6.88
2022-11-24T04:42:59.585Z,6.78
2022-11-24T04:45:26.553Z,6.60
2022-11-24T04:47:53.523Z,6.65
2022-11-24T04:50:21.012Z,7.35
2022-11-24T04:52:48.405Z,7.13
2022-11-24T04:55:15.847Z,6.50
2022-11-24T04:57:43.449Z,6.90
2022-11-24T05:00:11.179Z,6.82
2022-11-24T05:02:38.447Z,7.35
2022-11-24T05:05:06.558Z,7.90
2022-11-24T05:07:34.634Z,7.28
2022-11-24T05:10:20.410Z,7.50
2022-11-24T05:12:57.766Z,7.40
2022-11-24T05:15:24.992Z,8.60
2022-11-24T05:17:52.203Z,7.57
2022-11-24T05:20:19.826Z,6.85
2022-11-24T05:22:47.254Z,11.27
2022-11-24T05:25:14.587Z,9.55
2022-11-24T05:27:41.982Z,9.25
2022-11-24T05:30:09.603Z,7.97
2022-11-24T05:32:36.879Z,8.10
2022-11-24T05:35:04.634Z,8.52
2022-11-24T05:37:31.920Z,8.65
2022-11-24T05:39:59.228Z,7.88
2022-11-24T05:42:46.545Z,7.85
2022-11-24T05:45:18.051Z,7.35
2022-11-24T05:47:45.475Z,7.28
2022-11-24T05:50:14.477Z,7.90
2022-11-24T05:52:42.077Z,7.57
2022-11-24T05:55:10.141Z,8.07
2022-11-24T05:57:37.382Z,7.85
2022-11-24T06:00:06.967Z,7.45
2022-11-24T06:02:34.406Z,8.23
2022-11-24T06:05:01.717Z,8.32
2022-11-24T06:07:28.967Z,8.35
2022-11-24T06:09:56.340Z,9.15
2022-11-24T06:12:23.163Z,8.23
2022-11-24T06:14:50.375Z,7.35
2022-11-24T06:17:17.272Z,7.63
2022-11-24T06:19:47.841Z,7.38
2022-11-24T06:22:15.083Z,7.32
2022-11-24T06:24:42.365Z,6.90
2022-11-24T06:27:09.595Z,7.55
2022-11-24T06:29:36.822Z,6.63
2022-11-24T06:32:03.911Z,7.00
2022-11-24T06:34:30.926Z,7.43
2022-11-24T06:36:57.914Z,7.22
2022-11-24T06:39:25.169Z,7.30
2022-11-24T06:41:52.699Z,7.22
2022-11-24T06:44:20.008Z,6.93
2022-11-24T06:46:47.058Z,7.50
2022-11-24T06:49:14.169Z,6.93
2022-11-24T06:51:41.914Z,7.70
2022-11-24T06:54:15.986Z,6.95
2022-11-24T06:56:42.957Z,7.18
2022-11-24T06:59:20.698Z,7.43
2022-11-24T07:01:47.583Z,7.38
2022-11-24T07:04:15.156Z,7.05
2022-11-24T07:06:42.028Z,7.85
2022-11-24T07:09:09.819Z,6.65
2022-11-24T07:11:37.282Z,7.82
2022-11-24T07:14:04.582Z,6.88
2022-11-24T07:16:32.319Z,7.38
2022-11-24T07:18:59.615Z,7.40
2022-11-24T07:21:28.538Z,42.88
2022-11-24T07:23:56.980Z,8.38
2022-11-24T07:26:24.387Z,12.50
2022-11-24T07:28:51.391Z,8.25
2022-11-24T07:31:20.532Z,7.13
2022-11-24T07:33:52.203Z,7.30
2022-11-24T07:36:19.580Z,7.50
2022-11-24T07:38:46.837Z,7.13
2022-11-24T07:41:15.522Z,9.23
2022-11-24T07:43:42.753Z,6.85
2022-11-24T07:46:12.927Z,6.88
2022-11-24T07:48:40.538Z,7.15
2022-11-24T07:51:07.636Z,6.88
2022-11-24T07:53:35.157Z,8.10
2022-11-24T07:56:04.161Z,7.25
2022-11-24T07:58:33.730Z,6.80
2022-11-24T08:01:08.570Z,7.60
2022-11-24T08:03:35.998Z,7.13
2022-11-24T08:08:50.195Z,7.50
2022-11-24T08:11:18.073Z,7.88
2022-11-24T08:13:45.094Z,6.97
2022-11-24T08:16:15.186Z,7.60
2022-11-24T08:18:43.342Z,7.65
2022-11-24T08:21:14.691Z,7.63
2022-11-24T08:23:42.165Z,8.52
2022-11-24T08:26:13.865Z,7.30
2022-11-24T08:28:40.896Z,8.77
2022-11-24T08:31:12.292Z,8.02
2022-11-24T08:33:39.702Z,8.40
2022-11-24T08:36:12.887Z,8.55
2022-11-24T08:38:40.158Z,8.60
2022-11-24T08:41:12.750Z,9.80
2022-11-24T08:43:39.696Z,8.63
2022-11-24T08:46:12.581Z,8.65
2022-11-24T08:48:40.406Z,7.53
2022-11-24T08:51:13.751Z,7.65
2022-11-24T08:53:41.391Z,7.90
2022-11-24T08:56:09.461Z,8.75
2022-11-24T08:58:37.032Z,8.48
2022-11-24T09:01:04.966Z,7.65
2022-11-24T09:03:32.295Z,8.50
2022-11-24T09:05:59.193Z,7.40
2022-11-24T09:08:26.146Z,7.20
2022-11-24T09:10:53.451Z,123.65
2022-11-24T09:13:20.681Z,14.95
2022-11-24T09:15:47.889Z,7.95
2022-11-24T09:18:14.743Z,6.97
2022-11-24T09:20:42.727Z,7.60
2022-11-24T09:23:10.070Z,7.00
2022-11-24T09:25:37.952Z,7.78
2022-11-24T09:28:05.223Z,7.28
2022-11-24T09:30:32.527Z,7.63
2022-11-24T09:32:59.456Z,7.43
2022-11-24T09:35:26.673Z,7.63
2022-11-24T09:37:53.623Z,7.82
2022-11-24T09:40:21.033Z,8.35
2022-11-24T09:43:03.346Z,8.02
2022-11-24T09:46:05.568Z,7.60
2022-11-24T09:48:40.926Z,6.93
2022-11-24T09:51:13.341Z,7.70
2022-11-24T09:53:44.667Z,8.13
2022-11-24T09:56:24.919Z,7.68
2022-11-24T09:58:57.601Z,7.80
2022-11-24T10:01:26.320Z,7.75
2022-11-24T10:03:54.211Z,7.85
2022-11-24T10:06:28.222Z,7.57
2022-11-24T10:08:55.494Z,7.72
2022-11-24T10:11:38.092Z,7.65
2022-11-24T10:14:41.315Z,7.88
2022-11-24T10:17:13.928Z,7.97
2022-11-24T10:19:49.796Z,8.30
2022-11-24T10:22:50.449Z,8.40
2022-11-24T10:25:37.260Z,7.22
2022-11-24T10:28:10.112Z,7.80
2022-11-24T10:30:37.954Z,8.32
2022-11-24T10:33:30.652Z,7.35
2022-11-24T10:36:09.537Z,9.18
2022-11-24T10:39:13.795Z,9.27
2022-11-24T10:42:03.123Z,7.88
2022-11-24T10:44:30.047Z,8.15
2022-11-24T10:46:57.514Z,8.18
2022-11-24T10:49:29.649Z,8.68
2022-11-24T10:52:03.386Z,11.02
2022-11-24T10:54:30.242Z,14.15
2022-11-24T10:56:57.204Z,9.23
2022-11-24T10:59:29.650Z,8.35
2022-11-24T11:01:57.017Z,8.23
2022-11-24T11:04:33.327Z,7.90
2022-11-24T11:07:21.300Z,8.13
2022-11-24T11:09:49.071Z,8.30
2022-11-24T11:12:43.544Z,8.82
2022-11-24T11:15:23.439Z,8.65
2022-11-24T11:17:52.594Z,8.77
2022-11-24T11:20:24.362Z,7.82
2022-11-24T11:22:51.788Z,8.55
2022-11-24T11:25:19.082Z,7.38
2022-11-24T11:27:46.254Z,8.32
2022-11-24T11:35:51.155Z,8.70
2022-11-24T11:38:18.872Z,8.48
2022-11-24T11:40:49.977Z,8.50
2022-11-24T11:43:27.215Z,9.02
2022-11-24T11:46:10.191Z,8.27
2022-11-24T11:48:43.670Z,9.50
2022-11-24T11:51:26.592Z,9.90
2022-11-24T11:54:27.345Z,9.35
2022-11-24T11:57:11.036Z,9.73
2022-11-24T11:59:50.119Z,9.73
2022-11-24T12:02:49.952Z,9.77
2022-11-24T12:05:50.751Z,10.40
2022-11-24T12:09:03.178Z,11.52
2022-11-24T12:12:13.805Z,11.57
2022-11-24T12:15:11.203Z,10.95
2022-11-24T12:18:04.617Z,12.52
2022-11-24T12:20:32.102Z,12.32
2022-11-24T12:23:17.396Z,12.75
2022-11-24T12:25:57.012Z,11.02
2022-11-24T12:28:54.191Z,11.68
2022-11-24T12:31:34.515Z,11.45
2022-11-24T12:34:21.482Z,18.35
2022-11-24T12:37:06.957Z,12.07
2022-11-24T12:39:34.478Z,11.00
2022-11-24T12:42:09.198Z,11.00
2022-11-24T12:44:50.878Z,10.82
2022-11-24T12:47:50.520Z,11.30
2022-11-24T12:50:24.724Z,11.23
2022-11-24T12:53:00.757Z,11.38
2022-11-24T12:55:32.192Z,10.82
2022-11-24T12:58:27.021Z,10.00
2022-11-24T13:01:01.414Z,27.50
2022-11-24T13:03:40.201Z,14.52
2022-11-24T13:06:18.739Z,11.25
2022-11-24T13:08:46.127Z,10.00
2022-11-24T13:11:22.000Z,9.10
2022-11-24T13:13:58.555Z,9.15
2022-11-24T13:16:59.582Z,9.18
2022-11-24T13:19:18.108Z,10.13
2022-11-24T13:21:50.243Z,9.93
2022-11-24T13:24:17.842Z,10.07
2022-11-24T13:26:51.903Z,9.40
2022-11-24T13:29:32.653Z,8.93
2022-11-24T13:32:02.537Z,9.80
2022-11-24T13:34:42.842Z,11.02
2022-11-24T13:37:34.449Z,10.30
2022-11-24T13:40:12.039Z,9.82
2022-11-24T13:42:57.828Z,9.93
2022-11-24T13:45:40.505Z,11.93
2022-11-24T13:48:20.455Z,11.93
2022-11-24T13:50:50.815Z,12.63
2022-11-24T13:53:32.052Z,12.48
2022-11-24T13:56:07.319Z,12.82
2022-11-24T13:58:38.126Z,12.73
2022-11-24T14:01:21.918Z,38.03
2022-11-24T14:04:36.038Z,14.30
2022-11-24T14:09:41.069Z,11.65
2022-11-24T14:12:15.476Z,12.33
2022-11-24T14:14:44.447Z,13.63
2022-11-24T14:17:11.643Z,13.40
2022-11-24T14:19:38.569Z,14.65
2022-11-24T14:22:05.578Z,13.43
2022-11-24T14:24:39.766Z,15.00
2022-11-24T14:27:14.484Z,14.32
2022-11-24T14:29:56.497Z,13.98
2022-11-24T14:32:24.007Z,14.60
2022-11-24T14:34:52.286Z,14.63
2022-11-24T14:37:20.175Z,14.35
2022-11-24T14:39:47.751Z,14.73
2022-11-24T14:42:24.110Z,15.82
2022-11-24T14:44:59.758Z,16.52
2022-11-24T14:47:37.663Z,16.15
2022-11-24T14:50:11.022Z,15.05
2022-11-24T14:53:02.471Z,14.38
2022-11-24T14:55:31.661Z,14.40
2022-11-24T14:57:59.502Z,14.23
2022-11-24T15:00:29.614Z,14.90
2022-11-24T15:03:14.436Z,14.75
2022-11-24T15:05:57.184Z,15.05
2022-11-24T15:08:37.543Z,14.45
2022-11-24T15:11:06.477Z,16.02
2022-11-24T15:13:37.786Z,15.02
2022-11-24T15:16:19.940Z,15.55
2022-11-24T15:19:01.105Z,15.20
2022-11-24T15:21:36.559Z,14.00
2022-11-24T15:24:13.990Z,14.20
2022-11-24T15:26:42.354Z,15.25
2022-11-24T15:29:10.431Z,15.25
2022-11-24T15:31:38.644Z,15.85
2022-11-24T15:34:06.029Z,14.95
2022-11-24T15:36:33.279Z,15.13
2022-11-24T15:39:00.576Z,16.00
2022-11-24T15:41:32.231Z,15.30
2022-11-24T15:44:00.228Z,15.15
2022-11-24T15:46:38.197Z,16.20
2022-11-24T15:49:05.973Z,16.65
2022-11-24T15:51:33.433Z,16.73
2022-11-24T15:54:01.652Z,16.63
2022-11-24T15:56:28.888Z,17.27
2022-11-24T15:58:56.144Z,16.88
2022-11-24T16:01:24.782Z,15.25
2022-11-24T16:03:51.649Z,16.52
2022-11-24T16:06:24.700Z,16.02
2022-11-24T16:08:53.026Z,16.15
2022-11-24T16:11:20.841Z,16.48
2022-11-24T16:13:52.355Z,28.38
2022-11-24T16:16:22.089Z,17.83
2022-11-24T16:18:49.501Z,17.30
2022-11-24T16:21:16.772Z,18.48
2022-11-24T16:23:44.045Z,17.75
2022-11-24T16:26:10.968Z,16.75
2022-11-24T16:28:38.074Z,20.90
2022-11-24T16:31:04.977Z,18.60
2022-11-24T16:33:32.242Z,17.23
2022-11-24T16:35:59.253Z,16.63
2022-11-24T16:38:26.534Z,17.02
2022-11-24T16:40:56.243Z,17.75
2022-11-24T16:43:24.692Z,18.77
2022-11-24T16:46:23.641Z,17.80
2022-11-24T16:48:53.333Z,16.27
2022-11-24T16:51:22.200Z,16.30
2022-11-24T16:53:56.265Z,17.63
2022-11-24T16:56:23.141Z,19.42
2022-11-24T16:58:49.990Z,18.60
2022-11-24T17:01:16.869Z,19.40
2022-11-24T17:03:44.153Z,21.60
2022-11-24T17:06:12.885Z,20.80
2022-11-24T17:08:41.320Z,20.38
2022-11-24T17:11:12.625Z,22.23
2022-11-24T17:13:40.021Z,20.20
2022-11-24T17:16:12.663Z,21.30
2022-11-24T17:18:40.366Z,20.83
2022-11-24T17:21:11.826Z,20.58
2022-11-24T17:23:39.217Z,21.52
2022-11-24T17:26:08.712Z,22.83
2022-11-24T17:28:36.371Z,20.15
2022-11-24T17:31:35.726Z,20.33
2022-11-24T17:34:05.038Z,20.92
2022-11-24T17:36:33.675Z,19.52
2022-11-24T17:39:01.305Z,20.58
2022-11-24T17:41:28.586Z,20.08
2022-11-24T17:43:56.698Z,20.15
2022-11-24T17:46:24.976Z,20.25
2022-11-24T17:48:52.086Z,19.63
2022-11-24T17:51:20.725Z,19.20
2022-11-24T17:53:49.638Z,20.63
2022-11-24T17:56:19.896Z,19.70
2022-11-24T17:58:46.831Z,19.50
2022-11-24T18:01:13.978Z,18.98
2022-11-24T18:03:41.727Z,19.70
2022-11-24T18:06:14.557Z,20.27
2022-11-24T18:08:43.692Z,27.38
2022-11-24T18:11:16.807Z,30.30
2022-11-24T18:16:31.105Z,21.38
2022-11-24T18:19:08.502Z,22.45
2022-11-24T18:21:40.869Z,20.67
2022-11-24T18:24:09.373Z,23.02
2022-11-24T18:26:36.506Z,24.02
2022-11-24T18:29:04.046Z,24.35
2022-11-24T18:31:32.368Z,22.88
2022-11-24T18:33:59.723Z,22.55
2022-11-24T18:36:30.304Z,24.65
2022-11-24T18:39:05.174Z,22.13
2022-11-24T18:41:32.690Z,27.75
2022-11-24T18:44:02.508Z,26.23
2022-11-24T18:46:29.580Z,22.35
2022-11-24T18:48:56.842Z,25.20
2022-11-24T18:51:24.180Z,23.45
2022-11-24T18:53:54.619Z,22.88
2022-11-24T18:56:21.970Z,22.20
2022-11-24T18:58:53.704Z,21.30
2022-11-24T19:01:23.540Z,22.48
2022-11-24T19:03:56.306Z,23.08
2022-11-24T19:06:31.986Z,23.10
2022-11-24T19:09:04.462Z,24.95
2022-11-24T19:11:33.922Z,34.63
2022-11-24T19:14:01.487Z,28.48
2022-11-24T19:16:28.882Z,32.30
2022-11-24T19:19:03.161Z,28.00
2022-11-24T19:21:35.526Z,25.30
2022-11-24T19:24:05.433Z,24.65
2022-11-24T19:26:36.471Z,25.83
2022-11-24T19:29:04.921Z,24.08
2022-11-24T19:31:32.357Z,23.00
2022-11-24T19:34:00.028Z,23.25
2022-11-24T19:36:27.254Z,23.23
2022-11-24T19:38:56.106Z,22.52
2022-11-24T19:41:30.567Z,23.42
2022-11-24T19:43:58.732Z,24.02
2022-11-24T19:46:27.985Z,24.20
2022-11-24T19:48:59.031Z,23.75
2022-11-24T19:51:34.125Z,22.98
2022-11-24T19:54:01.889Z,23.20
2022-11-24T19:56:30.824Z,23.58
2022-11-24T19:58:58.078Z,23.52
2022-11-24T20:01:29.982Z,36.42
2022-11-24T20:04:01.872Z,24.05
2022-11-24T20:06:31.042Z,23.40
2022-11-24T20:09:01.513Z,21.55
2022-11-24T20:11:29.138Z,32.70
2022-11-24T20:13:56.952Z,23.92
2022-11-24T20:16:28.221Z,23.10
2022-11-24T20:18:57.429Z,23.73
2022-11-24T20:21:28.625Z,22.77
2022-11-24T20:23:58.833Z,24.67
2022-11-24T20:26:28.230Z,24.95
2022-11-24T20:28:56.682Z,25.05
2022-11-24T20:31:42.316Z,27.42
2022-11-24T20:34:09.809Z,26.13
2022-11-24T20:36:39.920Z,28.40
2022-11-24T20:39:10.447Z,27.17
2022-11-24T20:41:38.984Z,23.90
2022-11-24T20:44:08.221Z,25.20
2022-11-24T20:46:37.659Z,23.38
2022-11-24T20:49:06.775Z,27.63
2022-11-24T20:51:37.601Z,28.98
2022-11-24T20:54:07.293Z,26.58
2022-11-24T20:56:36.896Z,24.20
2022-11-24T20:59:04.711Z,22.17
2022-11-24T21:01:38.408Z,22.48
2022-11-24T21:04:17.014Z,21.27
2022-11-24T21:06:44.358Z,21.73
2022-11-24T21:09:11.251Z,20.27
2022-11-24T21:11:39.185Z,20.20
2022-11-24T21:14:07.021Z,20.33
2022-11-24T21:16:36.528Z,28.67
2022-11-24T21:19:10.296Z,25.25
2022-11-24T21:21:39.045Z,20.25
2022-11-24T21:24:09.774Z,20.40
2022-11-24T21:26:38.626Z,19.48
2022-11-24T21:29:06.883Z,20.45
2022-11-24T21:31:38.410Z,19.25
2022-11-24T21:34:06.603Z,17.75
2022-11-24T21:36:35.109Z,20.15
2022-11-24T21:39:03.178Z,20.40
2022-11-24T21:41:32.981Z,32.53
2022-11-24T21:44:00.281Z,25.02
2022-11-24T21:46:32.523Z,21.95
2022-11-24T21:48:59.477Z,21.75
2022-11-24T21:51:26.376Z,21.88
2022-11-24T21:53:54.126Z,20.52
2022-11-24T21:56:23.919Z,21.50
2022-11-24T21:58:53.772Z,19.50
2022-11-24T22:01:23.074Z,20.95
2022-11-24T22:03:50.516Z,20.85
2022-11-24T22:06:19.337Z,20.08
2022-11-24T22:08:47.624Z,19.13
2022-11-24T22:11:20.075Z,21.83
2022-11-24T22:13:47.581Z,26.25
2022-11-24T22:16:17.699Z,22.45
2022-11-24T22:18:45.516Z,24.75
2022-11-24T22:21:17.123Z,22.20
2022-11-24T22:23:44.404Z,22.08
2022-11-24T22:26:16.149Z,21.70
2022-11-24T22:28:43.889Z,22.60
2022-11-24T22:31:32.187Z,22.90
2022-11-24T22:34:00.678Z,20.60
2022-11-24T22:36:29.533Z,20.63
2022-11-24T22:38:58.852Z,19.45
2022-11-24T22:41:25.728Z,24.05
2022-11-24T22:43:53.575Z,26.48
2022-11-24T22:46:23.310Z,19.67
2022-11-24T22:48:52.985Z,20.25
2022-11-24T22:51:22.410Z,20.17
2022-11-24T22:53:51.644Z,20.10
2022-11-24T22:56:19.678Z,20.27
2022-11-24T22:58:47.050Z,19.73
2022-11-24T23:01:16.753Z,19.55
2022-11-24T23:03:44.549Z,21.42
2022-11-24T23:06:16.354Z,20.42
2022-11-24T23:08:44.445Z,21.48
2022-11-24T23:11:17.618Z,22.77
2022-11-24T23:13:45.086Z,22.05
2022-11-24T23:16:17.789Z,21.90
2022-11-24T23:18:49.848Z,23.52
2022-11-24T23:21:25.862Z,21.67
2022-11-24T23:23:53.082Z,23.17
2022-11-24T23:26:23.020Z,23.65
2022-11-24T23:28:50.253Z,22.42
2022-11-24T23:31:19.633Z,24.67
2022-11-24T23:33:47.135Z,21.60
2022-11-24T23:36:16.714Z,23.15
2022-11-24T23:38:44.444Z,23.80
2022-11-24T23:41:20.559Z,23.48
2022-11-24T23:43:47.945Z,22.60
2022-11-24T23:46:20.852Z,22.70
2022-11-24T23:48:48.797Z,22.13
2022-11-24T23:51:23.107Z,20.25
2022-11-24T23:53:50.721Z,19.50
2022-11-24T23:56:39.024Z,21.23
2022-11-24T23:59:06.286Z,22.23
